sensor_id;sensor_type;location;lat;lon;timestamp;pressure;altitude;pressure_sealevel;temperature;humidity
12913;BME280;6524;51.368;11.984;2023-03-29T04:03:18;100548.41;;;2.93;46.87
12913;BME280;6524;51.368;11.984;2023-03-29T04:08:19;100551.00;;;2.95;46.56
12913;BME280;6524;51.368;11.984;2023-03-29T04:13:22;100551.41;;;3.35;45.73
12913;BME280;6524;51.368;11.984;2023-03-29T04:18:22;100554.50;;;3.47;45.85
12913;BME280;6524;51.368;11.984;2023-03-29T04:23:23;100555.31;;;3.49;46.15
12913;BME280;6524;51.368;11.984;2023-03-29T04:28:23;100546.06;;;3.65;45.64
12913;BME280;6524;51.368;11.984;2023-03-29T04:33:24;100543.28;;;3.18;46.70
12913;BME280;6524;51.368;11.984;2023-03-29T04:38:24;100536.38;;;3.94;45.05
12913;BME280;6524;51.368;11.984;2023-03-29T04:43:25;100534.41;;;3.50;46.20
12913;BME280;6524;51.368;11.984;2023-03-29T04:48:26;100532.22;;;3.37;46.24
12913;BME280;6524;51.368;11.984;2023-03-29T04:53:27;100528.84;;;3.34;46.48
12913;BME280;6524;51.368;11.984;2023-03-29T04:58:28;100516.56;;;2.83;47.21
12913;BME280;6524;51.368;11.984;2023-03-29T05:03:28;100513.50;;;3.50;46.23
12913;BME280;6524;51.368;11.984;2023-03-29T05:08:28;100517.84;;;2.98;47.14
12913;BME280;6524;51.368;11.984;2023-03-29T05:13:29;100512.81;;;3.19;46.95
12913;BME280;6524;51.368;11.984;2023-03-29T05:18:30;100514.50;;;2.93;47.49
12913;BME280;6524;51.368;11.984;2023-03-29T05:23:30;100511.16;;;2.89;48.19
12913;BME280;6524;51.368;11.984;2023-03-29T05:28:31;100498.16;;;2.32;49.07
12913;BME280;6524;51.368;11.984;2023-03-29T05:33:33;100501.56;;;2.62;48.82
12913;BME280;6524;51.368;11.984;2023-03-29T05:38:34;100491.47;;;3.06;48.11
12913;BME280;6524;51.368;11.984;2023-03-29T05:43:34;100481.88;;;2.81;48.92
12913;BME280;6524;51.368;11.984;2023-03-29T05:48:35;100464.69;;;2.74;49.57
12913;BME280;6524;51.368;11.984;2023-03-29T05:53:35;100475.66;;;2.84;49.78
12913;BME280;6524;51.368;11.984;2023-03-29T05:58:36;100470.75;;;3.28;48.96
12913;BME280;6524;51.368;11.984;2023-03-29T06:03:38;100484.78;;;2.99;50.42
12913;BME280;6524;51.368;11.984;2023-03-29T06:08:39;100484.66;;;3.02;51.31
12913;BME280;6524;51.368;11.984;2023-03-29T06:13:39;100475.94;;;3.03;52.07
12913;BME280;6524;51.368;11.984;2023-03-29T06:18:41;100480.72;;;2.62;53.86
12913;BME280;6524;51.368;11.984;2023-03-29T06:23:41;100467.53;;;2.95;53.94
12913;BME280;6524;51.368;11.984;2023-03-29T06:28:42;100464.56;;;3.30;53.49
12913;BME280;6524;51.368;11.984;2023-03-29T06:33:42;100470.81;;;3.00;54.72
12913;BME280;6524;51.368;11.984;2023-03-29T06:38:43;100472.84;;;2.92;56.06
12913;BME280;6524;51.368;11.984;2023-03-29T06:43:45;100465.31;;;3.59;54.31
12913;BME280;6524;51.368;11.984;2023-03-29T06:48:45;100471.41;;;3.34;55.75
12913;BME280;6524;51.368;11.984;2023-03-29T06:53:47;100470.97;;;3.47;55.42
12913;BME280;6524;51.368;11.984;2023-03-29T06:58:47;100467.66;;;3.92;54.37
12913;BME280;6524;51.368;11.984;2023-03-29T07:03:48;100471.06;;;3.94;54.25
12913;BME280;6524;51.368;11.984;2023-03-29T07:08:48;100462.59;;;3.87;55.13
12913;BME280;6524;51.368;11.984;2023-03-29T07:13:51;100457.72;;;4.47;53.13
12913;BME280;6524;51.368;11.984;2023-03-29T07:18:52;100454.97;;;4.94;52.31
12913;BME280;6524;51.368;11.984;2023-03-29T07:23:52;100460.09;;;4.75;52.42
12913;BME280;6524;51.368;11.984;2023-03-29T07:28:53;100465.69;;;4.88;52.06
12913;BME280;6524;51.368;11.984;2023-03-29T07:33:54;100463.75;;;4.71;52.60
12913;BME280;6524;51.368;11.984;2023-03-29T07:38:55;100463.38;;;4.58;52.22
12913;BME280;6524;51.368;11.984;2023-03-29T07:43:56;100476.13;;;4.88;52.13
12913;BME280;6524;51.368;11.984;2023-03-29T07:48:56;100484.41;;;4.99;52.39
12913;BME280;6524;51.368;11.984;2023-03-29T07:53:57;100482.53;;;4.81;51.74
12913;BME280;6524;51.368;11.984;2023-03-29T07:58:57;100477.88;;;5.52;50.79
12913;BME280;6524;51.368;11.984;2023-03-29T08:03:57;100483.97;;;5.73;50.65
12913;BME280;6524;51.368;11.984;2023-03-29T08:08:58;100480.25;;;5.15;50.66
12913;BME280;6524;51.368;11.984;2023-03-29T08:13:59;100491.69;;;5.76;50.09
12913;BME280;6524;51.368;11.984;2023-03-29T08:18:59;100479.50;;;5.34;50.63
12913;BME280;6524;51.368;11.984;2023-03-29T08:24:00;100464.91;;;5.88;50.19
12913;BME280;6524;51.368;11.984;2023-03-29T08:29:00;100468.19;;;5.33;50.64
12913;BME280;6524;51.368;11.984;2023-03-29T08:34:01;100467.03;;;4.54;52.82
12913;BME280;6524;51.368;11.984;2023-03-29T08:39:02;100467.34;;;5.33;50.69
12913;BME280;6524;51.368;11.984;2023-03-29T08:44:19;100459.47;;;5.53;50.10
12913;BME280;6524;51.368;11.984;2023-03-29T08:49:24;100447.94;;;6.16;49.14
12913;BME280;6524;51.368;11.984;2023-03-29T08:54:28;100432.47;;;5.91;49.12
12913;BME280;6524;51.368;11.984;2023-03-29T08:59:32;100419.53;;;6.06;49.69
12913;BME280;6524;51.368;11.984;2023-03-29T09:04:34;100423.25;;;5.82;50.54
12913;BME280;6524;51.368;11.984;2023-03-29T09:09:37;100433.19;;;5.94;50.31
12913;BME280;6524;51.368;11.984;2023-03-29T09:31:00;100436.78;;;6.85;48.04
12913;BME280;6524;51.368;11.984;2023-03-29T09:36:07;100438.56;;;6.84;48.26
12913;BME280;6524;51.368;11.984;2023-03-29T09:41:23;100442.53;;;6.56;48.57
12913;BME280;6524;51.368;11.984;2023-03-29T09:46:38;100434.59;;;7.12;47.99
12913;BME280;6524;51.368;11.984;2023-03-29T09:51:41;100425.88;;;7.44;47.30
12913;BME280;6524;51.368;11.984;2023-03-29T09:56:41;100427.34;;;7.17;47.60
12913;BME280;6524;51.368;11.984;2023-03-29T10:01:42;100429.00;;;6.83;48.37
12913;BME280;6524;51.368;11.984;2023-03-29T10:06:51;100420.06;;;7.72;46.69
12913;BME280;6524;51.368;11.984;2023-03-29T10:11:54;100418.47;;;7.35;46.78
12913;BME280;6524;51.368;11.984;2023-03-29T10:16:56;100408.44;;;7.43;47.12
12913;BME280;6524;51.368;11.984;2023-03-29T10:21:58;100407.34;;;8.60;45.13
12913;BME280;6524;51.368;11.984;2023-03-29T10:27:03;100398.72;;;8.26;45.30
12913;BME280;6524;51.368;11.984;2023-03-29T10:32:17;100398.25;;;8.81;44.83
12913;BME280;6524;51.368;11.984;2023-03-29T10:37:23;100396.94;;;8.88;43.70
12913;BME280;6524;51.368;11.984;2023-03-29T10:42:24;100378.56;;;8.57;44.66
12913;BME280;6524;51.368;11.984;2023-03-29T10:47:25;100367.50;;;9.84;42.63
12913;BME280;6524;51.368;11.984;2023-03-29T10:52:30;100366.84;;;10.21;42.52
12913;BME280;6524;51.368;11.984;2023-03-29T11:03:01;100351.84;;;12.02;38.94
12913;BME280;6524;51.368;11.984;2023-03-29T11:08:14;100340.50;;;12.37;37.90
12913;BME280;6524;51.368;11.984;2023-03-29T11:44:23;100338.09;;;9.32;41.79
12913;BME280;6524;51.368;11.984;2023-03-29T11:49:33;100330.38;;;9.72;42.32
12913;BME280;6524;51.368;11.984;2023-03-29T11:54:37;100328.13;;;9.23;42.56
12913;BME280;6524;51.368;11.984;2023-03-29T12:00:00;100324.38;;;9.56;43.13
12913;BME280;6524;51.368;11.984;2023-03-29T12:10:36;100286.78;;;10.61;43.28
12913;BME280;6524;51.368;11.984;2023-03-29T12:15:47;100285.28;;;10.04;43.02
12913;BME280;6524;51.368;11.984;2023-03-29T12:20:57;100285.84;;;10.62;42.33
12913;BME280;6524;51.368;11.984;2023-03-29T12:26:00;100274.03;;;11.81;39.53
12913;BME280;6524;51.368;11.984;2023-03-29T12:31:16;100266.44;;;11.63;39.38
12913;BME280;6524;51.368;11.984;2023-03-29T12:36:47;100276.94;;;11.89;40.19
12913;BME280;6524;51.368;11.984;2023-03-29T12:41:51;100272.22;;;12.05;39.63
12913;BME280;6524;51.368;11.984;2023-03-29T12:46:53;100263.56;;;11.79;39.68
12913;BME280;6524;51.368;11.984;2023-03-29T12:51:58;100254.97;;;12.24;39.53
12913;BME280;6524;51.368;11.984;2023-03-29T12:57:20;100256.84;;;12.10;39.46
12913;BME280;6524;51.368;11.984;2023-03-29T13:12:26;100240.75;;;11.90;41.09
12913;BME280;6524;51.368;11.984;2023-03-29T13:17:54;100233.59;;;12.85;40.22
12913;BME280;6524;51.368;11.984;2023-03-29T13:34:49;100221.88;;;13.55;39.18
12913;BME280;6524;51.368;11.984;2023-03-29T13:39:54;100224.06;;;13.05;38.68
12913;BME280;6524;51.368;11.984;2023-03-29T13:45:14;100226.19;;;13.67;38.68
12913;BME280;6524;51.368;11.984;2023-03-29T13:50:19;100225.00;;;14.24;38.98
12913;BME280;6524;51.368;11.984;2023-03-29T13:55:30;100229.09;;;13.64;39.76
12913;BME280;6524;51.368;11.984;2023-03-29T14:00:56;100218.69;;;13.72;40.59
12913;BME280;6524;51.368;11.984;2023-03-29T14:06:00;100225.75;;;13.28;41.29
12913;BME280;6524;51.368;11.984;2023-03-29T14:11:04;100226.75;;;12.93;42.62
12913;BME280;6524;51.368;11.984;2023-03-29T14:16:08;100221.91;;;12.87;42.46
12913;BME280;6524;51.368;11.984;2023-03-29T14:21:12;100214.78;;;12.19;43.18
12913;BME280;6524;51.368;11.984;2023-03-29T14:26:16;100210.47;;;12.29;43.73
12913;BME280;6524;51.368;11.984;2023-03-29T14:31:20;100216.38;;;12.32;45.15
12913;BME280;6524;51.368;11.984;2023-03-29T14:36:21;100197.72;;;12.34;43.70
12913;BME280;6524;51.368;11.984;2023-03-29T14:41:23;100198.94;;;12.41;44.05
12913;BME280;6524;51.368;11.984;2023-03-29T14:46:23;100186.50;;;12.66;43.52
12913;BME280;6524;51.368;11.984;2023-03-29T14:51:25;100180.22;;;12.67;43.60
12913;BME280;6524;51.368;11.984;2023-03-29T14:56:29;100171.06;;;12.60;44.10
12913;BME280;6524;51.368;11.984;2023-03-29T15:01:31;100177.47;;;12.33;44.56
12913;BME280;6524;51.368;11.984;2023-03-29T15:06:43;100169.41;;;12.81;43.71
12913;BME280;6524;51.368;11.984;2023-03-29T15:11:56;100175.72;;;11.98;45.16
12913;BME280;6524;51.368;11.984;2023-03-29T15:17:02;100176.16;;;11.92;45.55
12913;BME280;6524;51.368;11.984;2023-03-29T15:22:03;100175.25;;;12.04;46.49
12913;BME280;6524;51.368;11.984;2023-03-29T15:27:14;100178.63;;;11.34;47.71
12913;BME280;6524;51.368;11.984;2023-03-29T15:32:21;100183.22;;;11.56;48.49
12913;BME280;6524;51.368;11.984;2023-03-29T15:37:22;100179.03;;;11.41;50.91
12913;BME280;6524;51.368;11.984;2023-03-29T15:42:23;100167.16;;;11.23;52.69
12913;BME280;6524;51.368;11.984;2023-03-29T15:47:23;100162.06;;;11.19;52.16
12913;BME280;6524;51.368;11.984;2023-03-29T15:52:24;100161.72;;;11.37;51.39
12913;BME280;6524;51.368;11.984;2023-03-29T15:57:25;100149.31;;;11.61;50.55
12913;BME280;6524;51.368;11.984;2023-03-29T16:02:25;100154.00;;;11.82;50.04
12913;BME280;6524;51.368;11.984;2023-03-29T16:07:27;100144.13;;;11.73;49.79
12913;BME280;6524;51.368;11.984;2023-03-29T16:12:29;100133.88;;;12.15;49.12
12913;BME280;6524;51.368;11.984;2023-03-29T16:17:29;100125.19;;;11.90;49.42
12913;BME280;6524;51.368;11.984;2023-03-29T16:22:30;100129.00;;;11.86;48.54
12913;BME280;6524;51.368;11.984;2023-03-29T16:27:31;100125.19;;;11.90;48.05
12913;BME280;6524;51.368;11.984;2023-03-29T16:32:31;100119.91;;;11.42;48.67
12913;BME280;6524;51.368;11.984;2023-03-29T16:37:32;100130.03;;;11.48;48.91
12913;BME280;6524;51.368;11.984;2023-03-29T16:42:32;100120.31;;;10.88;49.64
12913;BME280;6524;51.368;11.984;2023-03-29T16:47:33;100116.41;;;11.17;49.17
12913;BME280;6524;51.368;11.984;2023-03-29T16:52:33;100112.09;;;10.41;50.08
12913;BME280;6524;51.368;11.984;2023-03-29T16:57:34;100095.91;;;11.21;49.10
12913;BME280;6524;51.368;11.984;2023-03-29T17:02:35;100102.16;;;11.07;48.85
12913;BME280;6524;51.368;11.984;2023-03-29T17:07:36;100091.00;;;11.28;48.91
12913;BME280;6524;51.368;11.984;2023-03-29T17:12:36;100087.81;;;10.62;50.48
12913;BME280;6524;51.368;11.984;2023-03-29T17:17:37;100097.53;;;10.74;50.29
12913;BME280;6524;51.368;11.984;2023-03-29T17:22:38;100099.44;;;10.46;50.67
12913;BME280;6524;51.368;11.984;2023-03-29T17:27:38;100096.03;;;10.57;50.79
12913;BME280;6524;51.368;11.984;2023-03-29T17:32:40;100103.03;;;10.33;51.10
12913;BME280;6524;51.368;11.984;2023-03-29T17:37:40;100110.09;;;10.19;51.52
12913;BME280;6524;51.368;11.984;2023-03-29T17:42:42;100102.81;;;10.10;51.72
12913;BME280;6524;51.368;11.984;2023-03-29T17:47:43;100103.75;;;9.96;51.75
12913;BME280;6524;51.368;11.984;2023-03-29T17:52:44;100118.66;;;10.10;51.50
12913;BME280;6524;51.368;11.984;2023-03-29T17:57:44;100110.22;;;10.31;50.32
12913;BME280;6524;51.368;11.984;2023-03-29T18:02:45;100106.41;;;10.35;50.54
12913;BME280;6524;51.368;11.984;2023-03-29T18:07:47;100111.25;;;10.54;50.17
12913;BME280;6524;51.368;11.984;2023-03-29T18:12:47;100109.34;;;9.92;51.71
12913;BME280;6524;51.368;11.984;2023-03-29T18:17:47;100103.88;;;10.46;50.68
12913;BME280;6524;51.368;11.984;2023-03-29T18:22:48;100113.75;;;9.78;51.91
12913;BME280;6524;51.368;11.984;2023-03-29T18:27:48;100116.22;;;10.07;51.76
12913;BME280;6524;51.368;11.984;2023-03-29T18:32:49;100115.22;;;9.83;52.23
12913;BME280;6524;51.368;11.984;2023-03-29T18:37:49;100121.88;;;9.61;52.73
12913;BME280;6524;51.368;11.984;2023-03-29T18:42:51;100114.53;;;9.66;52.54
12913;BME280;6524;51.368;11.984;2023-03-29T18:47:51;100107.97;;;9.59;52.66
12913;BME280;6524;51.368;11.984;2023-03-29T18:52:52;100105.56;;;9.69;52.41
12913;BME280;6524;51.368;11.984;2023-03-29T18:57:53;100103.06;;;9.40;52.92
12913;BME280;6524;51.368;11.984;2023-03-29T19:02:53;100095.44;;;9.35;52.62
12913;BME280;6524;51.368;11.984;2023-03-29T19:07:53;100089.78;;;9.42;52.23
12913;BME280;6524;51.368;11.984;2023-03-29T19:12:54;100085.03;;;9.34;52.59
12913;BME280;6524;51.368;11.984;2023-03-29T19:17:54;100075.41;;;8.79;53.89
12913;BME280;6524;51.368;11.984;2023-03-29T19:22:54;100069.28;;;8.78;53.52
12913;BME280;6524;51.368;11.984;2023-03-29T19:27:56;100069.69;;;9.26;52.48
12913;BME280;6524;51.368;11.984;2023-03-29T19:32:56;100069.22;;;9.34;52.09
12913;BME280;6524;51.368;11.984;2023-03-29T19:37:57;100068.97;;;9.24;52.42
12913;BME280;6524;51.368;11.984;2023-03-29T19:42:58;100063.22;;;9.45;52.41
12913;BME280;6524;51.368;11.984;2023-03-29T19:47:59;100055.75;;;8.56;53.61
12913;BME280;6524;51.368;11.984;2023-03-29T19:53:00;100047.47;;;9.18;52.73
12913;BME280;6524;51.368;11.984;2023-03-29T19:58:00;100045.66;;;9.18;52.38
12913;BME280;6524;51.368;11.984;2023-03-29T20:03:00;100035.44;;;8.86;53.56
12913;BME280;6524;51.368;11.984;2023-03-29T20:08:01;100028.97;;;9.05;53.00
12913;BME280;6524;51.368;11.984;2023-03-29T20:13:02;100023.31;;;9.11;52.70
12913;BME280;6524;51.368;11.984;2023-03-29T20:18:03;100033.22;;;9.20;52.23
12913;BME280;6524;51.368;11.984;2023-03-29T20:23:03;100019.31;;;8.50;53.87
12913;BME280;6524;51.368;11.984;2023-03-29T20:28:03;100017.31;;;8.95;52.94
12913;BME280;6524;51.368;11.984;2023-03-29T20:33:06;100005.50;;;8.87;53.24
12913;BME280;6524;51.368;11.984;2023-03-29T20:38:06;100010.69;;;8.75;53.97
12913;BME280;6524;51.368;11.984;2023-03-29T20:43:07;100015.88;;;9.03;52.82
12913;BME280;6524;51.368;11.984;2023-03-29T20:48:12;100006.66;;;8.69;53.86
12913;BME280;6524;51.368;11.984;2023-03-29T20:53:13;99991.53;;;9.00;53.11
12913;BME280;6524;51.368;11.984;2023-03-29T20:58:14;99995.63;;;8.50;54.37
12913;BME280;6524;51.368;11.984;2023-03-29T21:03:14;99987.16;;;8.45;54.39
12913;BME280;6524;51.368;11.984;2023-03-29T21:08:15;99989.31;;;8.94;53.42
12913;BME280;6524;51.368;11.984;2023-03-29T21:13:16;99984.88;;;8.94;53.35
12913;BME280;6524;51.368;11.984;2023-03-29T21:18:17;99992.69;;;8.96;53.16
12913;BME280;6524;51.368;11.984;2023-03-29T21:23:17;99985.91;;;8.92;53.62
12913;BME280;6524;51.368;11.984;2023-03-29T21:28:18;99978.97;;;8.91;53.50
12913;BME280;6524;51.368;11.984;2023-03-29T21:33:18;99973.38;;;9.22;52.63
12913;BME280;6524;51.368;11.984;2023-03-29T21:38:19;99963.84;;;9.07;53.22
12913;BME280;6524;51.368;11.984;2023-03-29T21:43:19;99960.69;;;9.02;53.38
12913;BME280;6524;51.368;11.984;2023-03-29T21:48:20;99959.72;;;8.49;54.57
12913;BME280;6524;51.368;11.984;2023-03-29T21:53:21;99960.69;;;9.02;54.12
12913;BME280;6524;51.368;11.984;2023-03-29T21:58:21;99967.47;;;8.64;55.45
12913;BME280;6524;51.368;11.984;2023-03-29T22:03:21;99958.09;;;8.87;55.74
12913;BME280;6524;51.368;11.984;2023-03-29T22:08:22;99966.22;;;8.84;56.92
12913;BME280;6524;51.368;11.984;2023-03-29T22:13:27;99945.25;;;9.35;55.90
12913;BME280;6524;51.368;11.984;2023-03-29T22:18:35;99940.94;;;9.34;55.86
12913;BME280;6524;51.368;11.984;2023-03-29T22:23:42;99934.16;;;9.05;56.90
12913;BME280;6524;51.368;11.984;2023-03-29T22:28:43;99927.41;;;9.14;56.75
12913;BME280;6524;51.368;11.984;2023-03-29T22:33:44;99923.41;;;9.08;56.83
12913;BME280;6524;51.368;11.984;2023-03-29T22:38:46;99908.06;;;8.87;58.09
12913;BME280;6524;51.368;11.984;2023-03-29T22:43:47;99886.97;;;9.40;55.59
12913;BME280;6524;51.368;11.984;2023-03-29T22:48:47;99830.38;;;8.55;58.11
12913;BME280;6524;51.368;11.984;2023-03-29T22:53:47;99828.56;;;9.33;56.23
12913;BME280;6524;51.368;11.984;2023-03-29T22:58:48;99847.09;;;9.45;55.79
12913;BME280;6524;51.368;11.984;2023-03-29T23:03:48;99880.53;;;10.19;54.02
12913;BME280;6524;51.368;11.984;2023-03-29T23:08:49;99874.88;;;10.00;54.10
12913;BME280;6524;51.368;11.984;2023-03-29T23:13:49;99864.28;;;10.13;53.71
12913;BME280;6524;51.368;11.984;2023-03-29T23:18:49;99854.75;;;10.23;53.95
12913;BME280;6524;51.368;11.984;2023-03-29T23:23:50;99844.91;;;10.01;54.82
12913;BME280;6524;51.368;11.984;2023-03-29T23:28:50;99835.59;;;10.08;54.97
12913;BME280;6524;51.368;11.984;2023-03-29T23:33:50;99830.28;;;10.21;54.38
12913;BME280;6524;51.368;11.984;2023-03-29T23:38:52;99811.75;;;10.34;54.24
12913;BME280;6524;51.368;11.984;2023-03-29T23:43:52;99818.78;;;10.33;54.54
12913;BME280;6524;51.368;11.984;2023-03-29T23:48:53;99809.09;;;10.34;54.44
12913;BME280;6524;51.368;11.984;2023-03-29T23:53:54;99797.59;;;10.11;55.08
12913;BME280;6524;51.368;11.984;2023-03-29T23:58:55;99781.03;;;9.85;55.66
